»·PEaware :: SWA202 KLAX-KPHX

SWA202 :: KLAX-KPHX

FLIGHT INFORMATION

Flight Status: Arrived
Operator:
Southwest Airlines
More flights by this operator :: More flights under this callsign
Pilot: Cole F. (14495)
Aircraft: BOEING 737-800
(B738)
More flights by this aircraft type
Origin: KLAX Los Angeles Intl
United States
Destination: KPHX Phoenix Sky Harbor Intl
United States
More flights between these airports :: More routes between these airports
Route: +DOTSS2 CNERY BLH HYDRR1
File this flight plan on PilotEdge
Remarks:
Altitude:
(Current/Filed)
33,000ft
Speed:
(Current/Filed)
450kts
Departed: 14-Nov-17 10:15 AM
Arrived: 14-Nov-17 11:09 AM
Distance/Time
Traveled:
321nm/0:53
Distance/Time
To Go:
Arrived

Flight Plot

Page will automatically refresh every two minutes.

Flight plan parsing failed; only flown route is shown


Map Options




Map Legend


Flown Route
Filed Route
Departure Airport
Arrival Airport
Navaid (VOR, NDB)
Fix

Horizontal Profiles

Position Reports

Time Latitude Longitude Heading Altitude Ground
Speed
14-Nov-17 10:03 33.947390 -118.401862 111 110ft 0kts
14-Nov-17 10:04 33.947390 -118.401862 111 110ft 0kts
14-Nov-17 10:05 33.947390 -118.401862 111 110ft 0kts
14-Nov-17 10:06 33.947390 -118.401862 111 110ft 0kts
14-Nov-17 10:07 33.947390 -118.401862 111 110ft 0kts
14-Nov-17 10:08 33.947390 -118.401862 111 110ft 0kts
14-Nov-17 10:09 33.947390 -118.401862 111 110ft 0kts
14-Nov-17 10:10 33.947390 -118.401862 111 110ft 0kts
14-Nov-17 10:11 33.947390 -118.401862 111 110ft 0kts
14-Nov-17 10:12 33.947422 -118.401994 93 110ft 2kts
14-Nov-17 10:13 33.947105 -118.402539 13 110ft 2kts
14-Nov-17 10:14 33.947003 -118.402555 1 110ft 0kts
14-Nov-17 10:15 33.947159 -118.402552 0 110ft 3kts
14-Nov-17 10:16 33.948867 -118.402775 44 110ft 7kts
14-Nov-17 10:17 33.949215 -118.401825 33 110ft 0kts
14-Nov-17 10:18 33.950143 -118.402128 262 110ft 0kts
14-Nov-17 10:19 33.950143 -118.402128 262 110ft 0kts
14-Nov-17 10:20 33.947975 -118.424122 265 349ft 172kts
14-Nov-17 10:21 33.943000 -118.484698 268 2536ft 222kts
14-Nov-17 10:22 33.937477 -118.570329 265 4935ft 268kts
14-Nov-17 10:23 33.895371 -118.633686 187 5379ft 282kts
14-Nov-17 10:24 33.820089 -118.620786 147 8479ft 293kts
14-Nov-17 10:25 33.748460 -118.562431 149 10771ft 331kts
14-Nov-17 10:26 33.683487 -118.479005 111 12991ft 365kts
14-Nov-17 10:27 33.649798 -118.360983 111 15610ft 382kts
14-Nov-17 10:28 33.644255 -118.231378 90 17855ft 398kts
14-Nov-17 10:29 33.644208 -118.098309 90 18567ft 410kts
14-Nov-17 10:30 33.644085 -117.959803 91 21320ft 424kts
14-Nov-17 10:31 33.644101 -117.815383 91 23622ft 444kts
14-Nov-17 10:32 33.613784 -117.671593 111 25643ft 456kts
14-Nov-17 10:33 33.576453 -117.523088 111 27473ft 477kts
14-Nov-17 10:34 33.537960 -117.367805 111 29202ft 495kts
14-Nov-17 10:35 33.501369 -117.206266 99 30726ft 518kts
14-Nov-17 10:36 33.501390 -117.031640 94 32353ft 527kts
14-Nov-17 10:37 33.498440 -116.855330 94 33171ft 543kts
14-Nov-17 10:38 33.495966 -116.697463 94 33109ft 547kts
14-Nov-17 10:39 33.494442 -116.593931 93 33108ft 547kts
14-Nov-17 10:40 33.491968 -116.411913 93 33112ft 547kts
14-Nov-17 10:41 33.489089 -116.230691 94 33044ft 546kts
14-Nov-17 10:42 33.486296 -116.048819 93 33045ft 547kts
14-Nov-17 10:43 33.530952 -115.875644 67 33054ft 551kts
14-Nov-17 10:44 33.582471 -115.702969 70 33054ft 551kts
14-Nov-17 10:45 33.628981 -115.528467 84 33048ft 550kts
14-Nov-17 10:46 33.612287 -115.349688 98 33065ft 545kts
14-Nov-17 10:47 33.606328 -115.168254 95 33046ft 546kts
14-Nov-17 10:48 33.601580 -114.986454 95 33049ft 546kts
14-Nov-17 10:49 33.597270 -114.811781 95 33063ft 534kts
14-Nov-17 10:50 33.573076 -114.643731 109 30798ft 515kts
14-Nov-17 10:51 33.540703 -114.480808 107 28566ft 492kts
14-Nov-17 10:52 33.510236 -114.325688 107 26331ft 471kts
14-Nov-17 10:53 33.481308 -114.177369 107 24305ft 447kts
14-Nov-17 10:54 33.453413 -114.035142 107 23004ft 432kts
14-Nov-17 10:55 33.428271 -113.893987 115 23009ft 436kts
14-Nov-17 10:56 33.396253 -113.752963 107 23035ft 441kts
14-Nov-17 10:57 33.367925 -113.611078 107 21551ft 437kts
14-Nov-17 10:58 33.339962 -113.474364 106 20199ft 419kts
14-Nov-17 10:59 33.316110 -113.338777 104 19026ft 412kts
14-Nov-17 11:00 33.293713 -113.206173 101 17924ft 405kts
14-Nov-17 11:01 33.275619 -113.078758 100 17020ft 375kts
14-Nov-17 11:02 33.277143 -112.953736 88 15131ft 373kts
14-Nov-17 11:03 33.280336 -112.833944 83 13233ft 338kts
14-Nov-17 11:04 33.313535 -112.733105 63 10978ft 315kts
14-Nov-17 11:05 33.347813 -112.642714 63 9463ft 286kts
14-Nov-17 11:06 33.379780 -112.558855 63 8591ft 264kts
14-Nov-17 11:07 33.408584 -112.482365 67 7705ft 242kts
14-Nov-17 11:08 33.428768 -112.408171 88 6765ft 239kts
14-Nov-17 11:09 33.428681 -112.330364 90 5994ft 230kts
14-Nov-17 11:10 33.428771 -112.253228 90 5948ft 233kts
14-Nov-17 11:11 33.428788 -112.176285 88 4288ft 213kts
14-Nov-17 11:12 33.428890 -112.110457 90 2532ft 174kts
14-Nov-17 11:13 33.428888 -112.058376 90 1661ft 152kts
14-Nov-17 11:14 33.428852 -112.014139 89 1116ft 39kts
14-Nov-17 11:15 33.429913 -112.009691 78 1116ft 6kts
14-Nov-17 11:16 33.430973 -112.008933 357 1116ft 10kts
14-Nov-17 11:17 33.432619 -112.007513 17 1116ft 8kts
14-Nov-17 11:18 33.432833 -112.003745 89 1116ft 14kts
14-Nov-17 11:19 33.433456 -112.000359 359 1116ft 8kts
14-Nov-17 11:20 33.434270 -112.000281 48 1116ft 0kts
14-Nov-17 11:21 33.434296 -111.999898 91 1116ft 0kts
14-Nov-17 11:22 33.434296 -111.999898 91 1116ft 0kts
14-Nov-17 11:23 33.434296 -111.999898 91 1116ft 0kts
14-Nov-17 11:24 33.434296 -111.999898 91 1116ft 0kts
14-Nov-17 11:25 33.434296 -111.999898 91 1116ft 0kts

Navigation Log

Ident Type
Flight plan parsing failed, navigation log unavailable